Santa Mariana, Brazil
Current Conditions -  °F | °C
As of 6:00 AM on Thursday 29 Jan 2015 (Local Time) from SBLO Reporting Station
Moderate Fog Moderate Fog  
Wind Chill: 70°   Ceiling: 100
Heat Index: 70°   Visibility: 0.06mi
Dew Point: 70°   Wind: 5mph
Humidity: 100%   Direction: 60°ENE
Pressure: 29.97"   Gusts: NA
Location:  23.15°S, 50.51°W
Report Text: SBLO 290800Z 06004KT 0100 FG VV001 21/21 Q1015
Loading
Personal Weather Stations






























Interactive Weather Map New forecast layout! Learn more

10-Day Weather Forecast

Advertisements
Track Severe Weather on mobile